Busy Bee — BUSYB — position and weather

sailwx.info

Track history (hours):
 
Tides and Currents Weather Stations Pressure Air Temp Water Temp Dewpoint Dewpoint Depression Visibility Wind Speed Wind Dir Waves Ship Positions

Busy Bee

Last reported at 2016-Feb-06 01:04 UTC. Time now 2016-Feb-08 08:04 UTC.
Position N 34°43' E 135°20'.

Length 15 m.

Type: Sailing vessel. MMSI: 431002814.

Date/timePositionNaut miles runAvg speedWind from/ knotsBaromVisibWave heightAir tempDewpointWater temp
2016-Feb-06 01:04N 34°43' E 135°20'0 0.0
2016-Feb-06 00:31N 34°43' E 135°20'0 0.0
2016-Feb-05 23:16N 34°43' E 135°20'0 0.0
2016-Feb-05 22:31N 34°43' E 135°20'0 0.0
2016-Feb-05 21:28N 34°43' E 135°20'0 0.0
2016-Feb-05 19:31N 34°43' E 135°20'0 0.0
2016-Feb-05 18:31N 34°43' E 135°20'  
2016-Feb-01 04:27N 34°43' E 135°20'0 0.0
2016-Feb-01 03:18N 34°43' E 135°20'0 0.0
2016-Feb-01 02:30N 34°43' E 135°20'0 0.0
2016-Feb-01 01:30N 34°43' E 135°20'0 0.0
2016-Jan-31 20:15N 34°43' E 135°20'0 0.0
2016-Jan-31 19:15N 34°43' E 135°20'0 0.0
2016-Jan-31 18:27N 34°43' E 135°20'0 0.0
2016-Jan-31 16:30N 34°43' E 135°20'0 0.0
2016-Jan-31 15:27N 34°43' E 135°20'0 0.0
2016-Jan-31 09:06N 34°43' E 135°20'0 0.2
2016-Jan-31 08:28N 34°42' E 135°20'7 7.1
2016-Jan-31 07:33N 34°38' E 135°14'7 6.2
2016-Jan-31 06:26N 34°34' E 135°07'0 0.1
2016-Jan-31 05:32N 34°34' E 135°07'0 0.1
2016-Jan-31 04:30N 34°34' E 135°07'0 0.3
2016-Jan-31 03:29N 34°34' E 135°07'6 6.3
2016-Jan-31 02:33N 34°37' E 135°13'7 7.4
2016-Jan-31 01:33N 34°42' E 135°20'0 0.0
2016-Jan-29 13:09N 34°43' E 135°20'0 0.0
2016-Jan-27 12:24N 34°43' E 135°20'  
Track history (hours):
 
Tides and Currents Weather Stations Pressure Air Temp Water Temp Dewpoint Dewpoint Depression Visibility Wind Speed Wind Dir Waves Ship Positions

Busy Bee

Last reported at 2016-Feb-06 01:04 UTC. Time now 2016-Feb-08 08:04 UTC.
Position N 34°43' E 135°20'.

Length 15 m.

Type: Sailing vessel. MMSI: 431002814.

Date/timePositionNaut miles runAvg speedWind from/ knotsBaromVisibWave heightAir tempDewpointWater temp
2016-Feb-06 01:04N 34°43' E 135°20'0 0.0
2016-Feb-06 00:31N 34°43' E 135°20'0 0.0
2016-Feb-05 23:16N 34°43' E 135°20'0 0.0
2016-Feb-05 22:31N 34°43' E 135°20'0 0.0
2016-Feb-05 21:28N 34°43' E 135°20'0 0.0
2016-Feb-05 19:31N 34°43' E 135°20'0 0.0
2016-Feb-05 18:31N 34°43' E 135°20'  
2016-Feb-01 04:27N 34°43' E 135°20'0 0.0
2016-Feb-01 03:18N 34°43' E 135°20'0 0.0
2016-Feb-01 02:30N 34°43' E 135°20'0 0.0
2016-Feb-01 01:30N 34°43' E 135°20'0 0.0
2016-Jan-31 20:15N 34°43' E 135°20'0 0.0
2016-Jan-31 19:15N 34°43' E 135°20'0 0.0
2016-Jan-31 18:27N 34°43' E 135°20'0 0.0
2016-Jan-31 16:30N 34°43' E 135°20'0 0.0
2016-Jan-31 15:27N 34°43' E 135°20'0 0.0
2016-Jan-31 09:06N 34°43' E 135°20'0 0.2
2016-Jan-31 08:28N 34°42' E 135°20'7 7.1
2016-Jan-31 07:33N 34°38' E 135°14'7 6.2
2016-Jan-31 06:26N 34°34' E 135°07'0 0.1
2016-Jan-31 05:32N 34°34' E 135°07'0 0.1
2016-Jan-31 04:30N 34°34' E 135°07'0 0.3
2016-Jan-31 03:29N 34°34' E 135°07'6 6.3
2016-Jan-31 02:33N 34°37' E 135°13'7 7.4
2016-Jan-31 01:33N 34°42' E 135°20'0 0.0
2016-Jan-29 13:09N 34°43' E 135°20'0 0.0
2016-Jan-27 12:24N 34°43' E 135°20'  

Dump ship's entire track history